sensor_id;sensor_type;location;lat;lon;timestamp;temperature;humidity
45044;DHT22;30784;48.490;9.688;2023-04-06T00:01:30;6.10;33.20
45044;DHT22;30784;48.490;9.688;2023-04-06T00:03:56;6.00;33.20
45044;DHT22;30784;48.490;9.688;2023-04-06T00:06:21;6.00;33.30
45044;DHT22;30784;48.490;9.688;2023-04-06T00:08:47;6.00;33.60
45044;DHT22;30784;48.490;9.688;2023-04-06T00:11:13;6.00;33.40
45044;DHT22;30784;48.490;9.688;2023-04-06T00:13:39;5.90;33.30
45044;DHT22;30784;48.490;9.688;2023-04-06T00:16:05;5.90;33.50
45044;DHT22;30784;48.490;9.688;2023-04-06T00:18:31;5.90;33.60
45044;DHT22;30784;48.490;9.688;2023-04-06T00:20:57;5.90;33.60
45044;DHT22;30784;48.490;9.688;2023-04-06T00:23:23;5.90;33.60
45044;DHT22;30784;48.490;9.688;2023-04-06T00:25:48;5.80;33.60
45044;DHT22;30784;48.490;9.688;2023-04-06T00:28:14;5.80;33.90
45044;DHT22;30784;48.490;9.688;2023-04-06T00:30:40;5.80;33.90
45044;DHT22;30784;48.490;9.688;2023-04-06T00:33:06;5.80;33.90
45044;DHT22;30784;48.490;9.688;2023-04-06T00:35:31;5.70;34.70
45044;DHT22;30784;48.490;9.688;2023-04-06T00:37:57;5.70;34.10
45044;DHT22;30784;48.490;9.688;2023-04-06T00:40:22;5.60;34.00
45044;DHT22;30784;48.490;9.688;2023-04-06T00:42:48;5.60;34.10
45044;DHT22;30784;48.490;9.688;2023-04-06T00:45:14;5.60;34.20
45044;DHT22;30784;48.490;9.688;2023-04-06T00:47:39;5.60;34.60
45044;DHT22;30784;48.490;9.688;2023-04-06T00:50:05;5.60;34.50
45044;DHT22;30784;48.490;9.688;2023-04-06T00:52:31;5.60;34.40
45044;DHT22;30784;48.490;9.688;2023-04-06T00:54:56;5.50;34.40
45044;DHT22;30784;48.490;9.688;2023-04-06T00:57:22;5.50;34.30
45044;DHT22;30784;48.490;9.688;2023-04-06T00:59:47;5.50;34.30
45044;DHT22;30784;48.490;9.688;2023-04-06T01:02:13;5.50;34.30
45044;DHT22;30784;48.490;9.688;2023-04-06T01:04:39;5.50;34.30
45044;DHT22;30784;48.490;9.688;2023-04-06T01:07:05;5.60;34.40
45044;DHT22;30784;48.490;9.688;2023-04-06T01:09:30;5.60;34.40
45044;DHT22;30784;48.490;9.688;2023-04-06T01:11:57;5.60;34.50
45044;DHT22;30784;48.490;9.688;2023-04-06T01:14:23;5.50;34.40
45044;DHT22;30784;48.490;9.688;2023-04-06T01:16:49;5.50;34.50
45044;DHT22;30784;48.490;9.688;2023-04-06T01:19:14;5.50;34.40
45044;DHT22;30784;48.490;9.688;2023-04-06T01:21:41;5.50;34.60
45044;DHT22;30784;48.490;9.688;2023-04-06T01:24:07;5.50;34.50
45044;DHT22;30784;48.490;9.688;2023-04-06T01:26:33;5.50;34.50
45044;DHT22;30784;48.490;9.688;2023-04-06T01:29:00;5.50;34.60
45044;DHT22;30784;48.490;9.688;2023-04-06T01:31:25;5.50;34.70
45044;DHT22;30784;48.490;9.688;2023-04-06T01:33:52;5.50;34.60
45044;DHT22;30784;48.490;9.688;2023-04-06T01:36:17;5.50;34.70
45044;DHT22;30784;48.490;9.688;2023-04-06T01:38:43;5.50;34.70
45044;DHT22;30784;48.490;9.688;2023-04-06T01:41:09;5.50;34.60
45044;DHT22;30784;48.490;9.688;2023-04-06T01:43:35;5.50;34.70
45044;DHT22;30784;48.490;9.688;2023-04-06T01:46:00;5.40;34.70
45044;DHT22;30784;48.490;9.688;2023-04-06T01:48:29;5.40;34.60
45044;DHT22;30784;48.490;9.688;2023-04-06T01:50:54;5.50;34.60
45044;DHT22;30784;48.490;9.688;2023-04-06T01:53:20;5.40;34.70
45044;DHT22;30784;48.490;9.688;2023-04-06T01:55:46;5.40;34.80
45044;DHT22;30784;48.490;9.688;2023-04-06T01:58:12;5.40;34.70
45044;DHT22;30784;48.490;9.688;2023-04-06T02:00:38;5.40;34.70
45044;DHT22;30784;48.490;9.688;2023-04-06T02:03:04;5.40;34.90
45044;DHT22;30784;48.490;9.688;2023-04-06T02:05:31;5.40;35.00
45044;DHT22;30784;48.490;9.688;2023-04-06T02:07:57;5.30;34.90
45044;DHT22;30784;48.490;9.688;2023-04-06T02:10:23;5.30;35.00
45044;DHT22;30784;48.490;9.688;2023-04-06T02:12:49;5.30;34.90
45044;DHT22;30784;48.490;9.688;2023-04-06T02:15:15;5.30;34.90
45044;DHT22;30784;48.490;9.688;2023-04-06T02:17:41;5.20;34.90
45044;DHT22;30784;48.490;9.688;2023-04-06T02:20:07;5.20;35.00
45044;DHT22;30784;48.490;9.688;2023-04-06T02:22:33;5.20;35.10
45044;DHT22;30784;48.490;9.688;2023-04-06T02:24:58;5.20;35.30
45044;DHT22;30784;48.490;9.688;2023-04-06T02:27:24;5.20;35.20
45044;DHT22;30784;48.490;9.688;2023-04-06T02:29:49;5.10;35.30
45044;DHT22;30784;48.490;9.688;2023-04-06T02:32:15;5.10;35.30
45044;DHT22;30784;48.490;9.688;2023-04-06T02:34:41;5.10;35.30
45044;DHT22;30784;48.490;9.688;2023-04-06T02:37:06;5.10;35.20
45044;DHT22;30784;48.490;9.688;2023-04-06T02:39:31;5.10;35.40
45044;DHT22;30784;48.490;9.688;2023-04-06T02:41:57;5.10;35.30
45044;DHT22;30784;48.490;9.688;2023-04-06T02:44:23;5.10;35.30
45044;DHT22;30784;48.490;9.688;2023-04-06T02:46:48;5.10;35.30
45044;DHT22;30784;48.490;9.688;2023-04-06T02:49:14;5.10;35.50
45044;DHT22;30784;48.490;9.688;2023-04-06T02:51:39;5.00;35.50
45044;DHT22;30784;48.490;9.688;2023-04-06T02:54:05;5.00;35.40
45044;DHT22;30784;48.490;9.688;2023-04-06T02:56:31;5.10;35.40
45044;DHT22;30784;48.490;9.688;2023-04-06T02:58:56;5.10;35.60
45044;DHT22;30784;48.490;9.688;2023-04-06T03:01:22;5.00;35.50
45044;DHT22;30784;48.490;9.688;2023-04-06T03:03:47;5.00;35.50
45044;DHT22;30784;48.490;9.688;2023-04-06T03:06:13;5.00;35.40
45044;DHT22;30784;48.490;9.688;2023-04-06T03:08:38;5.00;35.50
45044;DHT22;30784;48.490;9.688;2023-04-06T03:11:04;5.00;35.60
45044;DHT22;30784;48.490;9.688;2023-04-06T03:13:29;5.00;35.70
45044;DHT22;30784;48.490;9.688;2023-04-06T03:15:55;5.00;35.50
45044;DHT22;30784;48.490;9.688;2023-04-06T03:18:22;5.00;35.70
45044;DHT22;30784;48.490;9.688;2023-04-06T03:20:48;5.00;35.70
45044;DHT22;30784;48.490;9.688;2023-04-06T03:23:14;5.00;35.60
45044;DHT22;30784;48.490;9.688;2023-04-06T03:25:39;5.00;35.70
45044;DHT22;30784;48.490;9.688;2023-04-06T03:28:05;5.00;35.80
45044;DHT22;30784;48.490;9.688;2023-04-06T03:30:31;5.00;35.70
45044;DHT22;30784;48.490;9.688;2023-04-06T03:32:56;5.00;35.70
45044;DHT22;30784;48.490;9.688;2023-04-06T03:35:22;5.00;35.80
45044;DHT22;30784;48.490;9.688;2023-04-06T03:37:47;5.00;35.70
45044;DHT22;30784;48.490;9.688;2023-04-06T03:40:13;5.00;35.70
45044;DHT22;30784;48.490;9.688;2023-04-06T03:42:38;5.00;35.80
45044;DHT22;30784;48.490;9.688;2023-04-06T03:45:05;5.00;35.80
45044;DHT22;30784;48.490;9.688;2023-04-06T03:47:30;5.00;35.70
45044;DHT22;30784;48.490;9.688;2023-04-06T03:49:56;5.00;35.70
45044;DHT22;30784;48.490;9.688;2023-04-06T03:52:21;5.00;35.80
45044;DHT22;30784;48.490;9.688;2023-04-06T03:54:48;5.00;35.80
45044;DHT22;30784;48.490;9.688;2023-04-06T03:57:14;5.00;35.90
45044;DHT22;30784;48.490;9.688;2023-04-06T04:03:01;4.90;35.70
45044;DHT22;30784;48.490;9.688;2023-04-06T04:05:28;5.00;35.90
45044;DHT22;30784;48.490;9.688;2023-04-06T04:07:53;4.90;35.90
45044;DHT22;30784;48.490;9.688;2023-04-06T04:10:19;4.90;35.90
45044;DHT22;30784;48.490;9.688;2023-04-06T04:12:44;4.90;35.90
45044;DHT22;30784;48.490;9.688;2023-04-06T04:15:10;5.00;36.00
45044;DHT22;30784;48.490;9.688;2023-04-06T04:17:35;4.90;36.00
45044;DHT22;30784;48.490;9.688;2023-04-06T04:20:01;4.90;36.00
45044;DHT22;30784;48.490;9.688;2023-04-06T04:22:26;4.90;36.00
45044;DHT22;30784;48.490;9.688;2023-04-06T04:24:53;4.90;36.10
45044;DHT22;30784;48.490;9.688;2023-04-06T04:27:18;4.90;36.00
45044;DHT22;30784;48.490;9.688;2023-04-06T04:29:44;4.90;36.70
45044;DHT22;30784;48.490;9.688;2023-04-06T04:32:10;5.00;36.30
45044;DHT22;30784;48.490;9.688;2023-04-06T04:34:36;4.90;36.20
45044;DHT22;30784;48.490;9.688;2023-04-06T04:37:01;4.90;36.10
45044;DHT22;30784;48.490;9.688;2023-04-06T04:39:27;4.90;36.30
45044;DHT22;30784;48.490;9.688;2023-04-06T04:41:52;4.90;36.30
45044;DHT22;30784;48.490;9.688;2023-04-06T04:44:18;4.90;36.30
45044;DHT22;30784;48.490;9.688;2023-04-06T04:46:44;4.90;36.20
45044;DHT22;30784;48.490;9.688;2023-04-06T04:49:10;4.90;36.30
45044;DHT22;30784;48.490;9.688;2023-04-06T04:51:35;4.90;36.20
45044;DHT22;30784;48.490;9.688;2023-04-06T04:54:01;5.00;36.40
45044;DHT22;30784;48.490;9.688;2023-04-06T04:56:27;4.90;36.30
45044;DHT22;30784;48.490;9.688;2023-04-06T04:58:52;4.90;36.40
45044;DHT22;30784;48.490;9.688;2023-04-06T05:01:18;5.00;36.40
45044;DHT22;30784;48.490;9.688;2023-04-06T05:03:43;5.00;36.50
45044;DHT22;30784;48.490;9.688;2023-04-06T05:06:09;5.00;36.50
45044;DHT22;30784;48.490;9.688;2023-04-06T05:08:34;5.00;36.40
45044;DHT22;30784;48.490;9.688;2023-04-06T05:11:00;5.00;36.40
45044;DHT22;30784;48.490;9.688;2023-04-06T05:13:26;5.00;36.50
45044;DHT22;30784;48.490;9.688;2023-04-06T05:15:51;5.00;36.50
45044;DHT22;30784;48.490;9.688;2023-04-06T05:18:17;5.00;36.60
45044;DHT22;30784;48.490;9.688;2023-04-06T05:20:43;5.00;36.50
45044;DHT22;30784;48.490;9.688;2023-04-06T05:23:08;5.00;36.50
45044;DHT22;30784;48.490;9.688;2023-04-06T05:25:35;5.10;36.60
45044;DHT22;30784;48.490;9.688;2023-04-06T05:28:01;5.10;36.60
45044;DHT22;30784;48.490;9.688;2023-04-06T05:30:26;5.10;36.60
45044;DHT22;30784;48.490;9.688;2023-04-06T05:32:52;5.10;36.70
45044;DHT22;30784;48.490;9.688;2023-04-06T05:35:17;5.10;36.60
45044;DHT22;30784;48.490;9.688;2023-04-06T05:37:43;5.20;36.70
45044;DHT22;30784;48.490;9.688;2023-04-06T05:40:09;5.20;36.70
45044;DHT22;30784;48.490;9.688;2023-04-06T05:42:38;5.20;36.70
45044;DHT22;30784;48.490;9.688;2023-04-06T05:45:05;5.20;36.70
45044;DHT22;30784;48.490;9.688;2023-04-06T05:47:31;5.30;36.80
45044;DHT22;30784;48.490;9.688;2023-04-06T05:49:57;5.30;36.70
45044;DHT22;30784;48.490;9.688;2023-04-06T05:52:22;5.40;36.80
45044;DHT22;30784;48.490;9.688;2023-04-06T05:54:48;5.40;36.80
45044;DHT22;30784;48.490;9.688;2023-04-06T05:57:14;5.50;36.90
45044;DHT22;30784;48.490;9.688;2023-04-06T05:59:39;5.50;37.00
45044;DHT22;30784;48.490;9.688;2023-04-06T06:02:05;5.60;37.00
45044;DHT22;30784;48.490;9.688;2023-04-06T06:04:30;5.70;37.00
45044;DHT22;30784;48.490;9.688;2023-04-06T06:06:56;5.80;37.00
45044;DHT22;30784;48.490;9.688;2023-04-06T06:09:22;5.80;37.00
45044;DHT22;30784;48.490;9.688;2023-04-06T06:11:48;5.90;37.10
45044;DHT22;30784;48.490;9.688;2023-04-06T06:14:14;6.00;37.20
45044;DHT22;30784;48.490;9.688;2023-04-06T06:16:40;6.20;37.30
45044;DHT22;30784;48.490;9.688;2023-04-06T06:19:06;6.30;37.30
45044;DHT22;30784;48.490;9.688;2023-04-06T06:21:31;6.40;37.30
45044;DHT22;30784;48.490;9.688;2023-04-06T06:23:57;6.60;37.20
45044;DHT22;30784;48.490;9.688;2023-04-06T06:26:23;6.70;37.20
45044;DHT22;30784;48.490;9.688;2023-04-06T06:28:48;6.90;37.20
45044;DHT22;30784;48.490;9.688;2023-04-06T06:31:14;7.10;37.20
45044;DHT22;30784;48.490;9.688;2023-04-06T06:33:39;7.20;37.10
45044;DHT22;30784;48.490;9.688;2023-04-06T06:36:05;7.40;37.10
45044;DHT22;30784;48.490;9.688;2023-04-06T06:38:31;7.60;37.20
45044;DHT22;30784;48.490;9.688;2023-04-06T06:40:56;7.70;36.90
45044;DHT22;30784;48.490;9.688;2023-04-06T06:43:22;7.90;36.70
45044;DHT22;30784;48.490;9.688;2023-04-06T06:45:47;8.10;36.70
45044;DHT22;30784;48.490;9.688;2023-04-06T06:48:13;8.30;36.70
45044;DHT22;30784;48.490;9.688;2023-04-06T06:50:38;8.40;36.60
45044;DHT22;30784;48.490;9.688;2023-04-06T06:53:04;8.60;36.50
45044;DHT22;30784;48.490;9.688;2023-04-06T06:55:29;8.80;36.30
45044;DHT22;30784;48.490;9.688;2023-04-06T06:57:55;9.10;36.10
45044;DHT22;30784;48.490;9.688;2023-04-06T07:00:20;9.30;35.80
45044;DHT22;30784;48.490;9.688;2023-04-06T07:02:47;9.50;35.90
45044;DHT22;30784;48.490;9.688;2023-04-06T07:05:13;9.70;35.50
45044;DHT22;30784;48.490;9.688;2023-04-06T07:07:39;10.00;35.70
45044;DHT22;30784;48.490;9.688;2023-04-06T07:10:05;10.20;35.30
45044;DHT22;30784;48.490;9.688;2023-04-06T07:12:30;10.40;35.10
45044;DHT22;30784;48.490;9.688;2023-04-06T07:14:56;10.70;34.80
45044;DHT22;30784;48.490;9.688;2023-04-06T07:17:22;11.00;34.70
45044;DHT22;30784;48.490;9.688;2023-04-06T07:19:47;11.20;34.30
45044;DHT22;30784;48.490;9.688;2023-04-06T07:22:13;11.40;34.50
45044;DHT22;30784;48.490;9.688;2023-04-06T07:24:38;11.70;34.30
45044;DHT22;30784;48.490;9.688;2023-04-06T07:27:04;11.90;33.50
45044;DHT22;30784;48.490;9.688;2023-04-06T07:29:30;12.10;33.50
45044;DHT22;30784;48.490;9.688;2023-04-06T07:31:55;12.30;33.00
45044;DHT22;30784;48.490;9.688;2023-04-06T07:34:21;12.50;32.30
45044;DHT22;30784;48.490;9.688;2023-04-06T07:36:47;12.70;32.40
45044;DHT22;30784;48.490;9.688;2023-04-06T07:39:13;12.90;31.80
45044;DHT22;30784;48.490;9.688;2023-04-06T07:41:39;13.00;31.60
45044;DHT22;30784;48.490;9.688;2023-04-06T07:44:05;13.30;31.10
45044;DHT22;30784;48.490;9.688;2023-04-06T07:46:30;13.40;30.80
45044;DHT22;30784;48.490;9.688;2023-04-06T07:48:57;13.60;31.10
45044;DHT22;30784;48.490;9.688;2023-04-06T07:51:23;13.70;31.10
45044;DHT22;30784;48.490;9.688;2023-04-06T07:53:50;13.90;30.20
45044;DHT22;30784;48.490;9.688;2023-04-06T07:56:16;14.00;30.00
45044;DHT22;30784;48.490;9.688;2023-04-06T07:58:41;14.20;30.10
45044;DHT22;30784;48.490;9.688;2023-04-06T08:01:07;14.40;30.00
45044;DHT22;30784;48.490;9.688;2023-04-06T08:03:36;14.50;29.70
45044;DHT22;30784;48.490;9.688;2023-04-06T08:06:02;14.60;29.40
45044;DHT22;30784;48.490;9.688;2023-04-06T08:08:28;14.70;29.10
45044;DHT22;30784;48.490;9.688;2023-04-06T08:10:54;14.70;28.90
45044;DHT22;30784;48.490;9.688;2023-04-06T08:13:20;14.90;29.10
45044;DHT22;30784;48.490;9.688;2023-04-06T08:15:45;14.90;29.00
45044;DHT22;30784;48.490;9.688;2023-04-06T08:18:11;15.00;29.10
45044;DHT22;30784;48.490;9.688;2023-04-06T08:20:37;15.20;29.20
45044;DHT22;30784;48.490;9.688;2023-04-06T08:23:02;15.30;28.70
45044;DHT22;30784;48.490;9.688;2023-04-06T08:25:28;15.40;28.50
45044;DHT22;30784;48.490;9.688;2023-04-06T08:27:53;15.60;28.70
45044;DHT22;30784;48.490;9.688;2023-04-06T08:30:19;15.70;28.60
45044;DHT22;30784;48.490;9.688;2023-04-06T08:32:45;15.90;28.60
45044;DHT22;30784;48.490;9.688;2023-04-06T08:35:11;16.00;28.00
45044;DHT22;30784;48.490;9.688;2023-04-06T08:37:37;16.10;27.80
45044;DHT22;30784;48.490;9.688;2023-04-06T08:40:03;16.20;27.50
45044;DHT22;30784;48.490;9.688;2023-04-06T08:42:32;16.30;27.70
45044;DHT22;30784;48.490;9.688;2023-04-06T08:44:58;16.40;27.30
45044;DHT22;30784;48.490;9.688;2023-04-06T08:47:24;16.50;27.40
45044;DHT22;30784;48.490;9.688;2023-04-06T08:53:12;16.60;27.20
45044;DHT22;30784;48.490;9.688;2023-04-06T08:55:38;16.80;26.40
45044;DHT22;30784;48.490;9.688;2023-04-06T08:58:06;16.90;26.40
45044;DHT22;30784;48.490;9.688;2023-04-06T09:00:36;16.80;26.40
45044;DHT22;30784;48.490;9.688;2023-04-06T09:03:03;16.90;26.40
45044;DHT22;30784;48.490;9.688;2023-04-06T09:05:30;16.90;26.30
45044;DHT22;30784;48.490;9.688;2023-04-06T09:07:57;17.00;26.20
45044;DHT22;30784;48.490;9.688;2023-04-06T09:10:23;17.10;26.50
45044;DHT22;30784;48.490;9.688;2023-04-06T09:12:50;17.20;26.30
45044;DHT22;30784;48.490;9.688;2023-04-06T09:15:20;17.20;26.20
45044;DHT22;30784;48.490;9.688;2023-04-06T09:17:47;17.40;26.20
45044;DHT22;30784;48.490;9.688;2023-04-06T09:20:12;17.60;25.90
45044;DHT22;30784;48.490;9.688;2023-04-06T09:22:39;17.80;25.70
45044;DHT22;30784;48.490;9.688;2023-04-06T09:25:05;17.90;25.80
45044;DHT22;30784;48.490;9.688;2023-04-06T09:27:36;18.10;25.80
45044;DHT22;30784;48.490;9.688;2023-04-06T09:30:10;18.20;25.80
45044;DHT22;30784;48.490;9.688;2023-04-06T09:32:52;18.30;25.70
45044;DHT22;30784;48.490;9.688;2023-04-06T09:35:19;18.50;26.00
45044;DHT22;30784;48.490;9.688;2023-04-06T09:37:51;18.60;25.10
45044;DHT22;30784;48.490;9.688;2023-04-06T09:40:17;18.70;25.10
45044;DHT22;30784;48.490;9.688;2023-04-06T09:42:48;18.80;25.00
45044;DHT22;30784;48.490;9.688;2023-04-06T09:45:15;18.80;24.80
45044;DHT22;30784;48.490;9.688;2023-04-06T09:47:45;18.90;24.70
45044;DHT22;30784;48.490;9.688;2023-04-06T09:50:13;18.90;24.70
45044;DHT22;30784;48.490;9.688;2023-04-06T09:52:54;19.00;24.10
45044;DHT22;30784;48.490;9.688;2023-04-06T09:55:34;19.00;24.90
45044;DHT22;30784;48.490;9.688;2023-04-06T09:58:05;19.10;24.30
45044;DHT22;30784;48.490;9.688;2023-04-06T10:00:43;19.00;24.60
45044;DHT22;30784;48.490;9.688;2023-04-06T10:03:40;19.00;23.30
45044;DHT22;30784;48.490;9.688;2023-04-06T10:06:14;18.90;23.40
45044;DHT22;30784;48.490;9.688;2023-04-06T10:08:40;18.90;23.80
45044;DHT22;30784;48.490;9.688;2023-04-06T10:11:11;18.90;23.60
45044;DHT22;30784;48.490;9.688;2023-04-06T10:13:37;18.90;23.40
45044;DHT22;30784;48.490;9.688;2023-04-06T10:16:03;18.90;23.30
45044;DHT22;30784;48.490;9.688;2023-04-06T10:18:29;18.90;23.40
45044;DHT22;30784;48.490;9.688;2023-04-06T10:20:57;18.90;23.40
45044;DHT22;30784;48.490;9.688;2023-04-06T10:26:19;18.90;23.30
45044;DHT22;30784;48.490;9.688;2023-04-06T10:28:46;18.80;22.90
45044;DHT22;30784;48.490;9.688;2023-04-06T10:31:12;18.70;22.90
45044;DHT22;30784;48.490;9.688;2023-04-06T10:33:37;18.70;22.80
45044;DHT22;30784;48.490;9.688;2023-04-06T10:36:14;18.80;22.50
45044;DHT22;30784;48.490;9.688;2023-04-06T10:38:41;18.70;22.80
45044;DHT22;30784;48.490;9.688;2023-04-06T10:41:09;18.70;22.80
45044;DHT22;30784;48.490;9.688;2023-04-06T10:43:37;18.90;23.00
45044;DHT22;30784;48.490;9.688;2023-04-06T10:46:04;19.00;23.00
45044;DHT22;30784;48.490;9.688;2023-04-06T10:48:38;19.10;22.90
45044;DHT22;30784;48.490;9.688;2023-04-06T10:51:17;19.30;22.60
45044;DHT22;30784;48.490;9.688;2023-04-06T10:53:45;19.30;22.60
45044;DHT22;30784;48.490;9.688;2023-04-06T10:56:14;19.40;22.40
45044;DHT22;30784;48.490;9.688;2023-04-06T10:58:51;19.40;21.90
45044;DHT22;30784;48.490;9.688;2023-04-06T11:01:18;19.40;22.00
45044;DHT22;30784;48.490;9.688;2023-04-06T11:03:45;19.40;21.60
45044;DHT22;30784;48.490;9.688;2023-04-06T11:06:11;19.40;21.70
45044;DHT22;30784;48.490;9.688;2023-04-06T11:08:42;19.30;21.80
45044;DHT22;30784;48.490;9.688;2023-04-06T11:11:13;19.20;21.80
45044;DHT22;30784;48.490;9.688;2023-04-06T11:13:57;19.20;21.80
45044;DHT22;30784;48.490;9.688;2023-04-06T11:18:57;19.30;22.00
45044;DHT22;30784;48.490;9.688;2023-04-06T11:24:27;19.50;22.10
45044;DHT22;30784;48.490;9.688;2023-04-06T11:26:55;19.70;21.80
45044;DHT22;30784;48.490;9.688;2023-04-06T11:29:28;19.70;22.00
45044;DHT22;30784;48.490;9.688;2023-04-06T11:32:03;19.80;21.30
45044;DHT22;30784;48.490;9.688;2023-04-06T11:34:32;19.80;21.60
45044;DHT22;30784;48.490;9.688;2023-04-06T11:37:00;19.80;21.50
45044;DHT22;30784;48.490;9.688;2023-04-06T11:39:28;19.80;21.60
45044;DHT22;30784;48.490;9.688;2023-04-06T11:41:57;19.80;21.50
45044;DHT22;30784;48.490;9.688;2023-04-06T11:44:42;19.90;21.60
45044;DHT22;30784;48.490;9.688;2023-04-06T11:47:10;19.90;21.50
45044;DHT22;30784;48.490;9.688;2023-04-06T11:49:40;20.10;21.50
45044;DHT22;30784;48.490;9.688;2023-04-06T11:52:16;20.20;21.40
45044;DHT22;30784;48.490;9.688;2023-04-06T11:54:42;20.30;21.90
45044;DHT22;30784;48.490;9.688;2023-04-06T11:57:08;20.40;21.20
45044;DHT22;30784;48.490;9.688;2023-04-06T11:59:34;20.50;21.20
45044;DHT22;30784;48.490;9.688;2023-04-06T12:02:04;20.70;21.30
45044;DHT22;30784;48.490;9.688;2023-04-06T12:04:29;20.80;21.10
45044;DHT22;30784;48.490;9.688;2023-04-06T12:06:55;20.90;21.20
45044;DHT22;30784;48.490;9.688;2023-04-06T12:09:21;21.00;20.90
45044;DHT22;30784;48.490;9.688;2023-04-06T12:11:47;21.00;21.00
45044;DHT22;30784;48.490;9.688;2023-04-06T12:14:13;21.10;20.80
45044;DHT22;30784;48.490;9.688;2023-04-06T12:16:38;21.00;20.80
45044;DHT22;30784;48.490;9.688;2023-04-06T12:19:04;21.00;20.80
45044;DHT22;30784;48.490;9.688;2023-04-06T12:21:30;21.00;20.60
45044;DHT22;30784;48.490;9.688;2023-04-06T12:23:57;21.00;20.30
45044;DHT22;30784;48.490;9.688;2023-04-06T12:26:23;20.90;20.50
45044;DHT22;30784;48.490;9.688;2023-04-06T12:28:49;20.80;20.60
45044;DHT22;30784;48.490;9.688;2023-04-06T12:31:16;20.80;20.60
45044;DHT22;30784;48.490;9.688;2023-04-06T12:33:42;20.70;20.60
45044;DHT22;30784;48.490;9.688;2023-04-06T12:36:20;20.70;20.60
45044;DHT22;30784;48.490;9.688;2023-04-06T12:38:49;20.60;20.80
45044;DHT22;30784;48.490;9.688;2023-04-06T12:41:16;20.50;20.40
45044;DHT22;30784;48.490;9.688;2023-04-06T12:43:42;20.50;20.40
45044;DHT22;30784;48.490;9.688;2023-04-06T12:46:08;20.40;20.50
45044;DHT22;30784;48.490;9.688;2023-04-06T12:48:34;20.40;20.60
45044;DHT22;30784;48.490;9.688;2023-04-06T12:51:03;20.20;20.50
45044;DHT22;30784;48.490;9.688;2023-04-06T12:53:29;20.20;20.60
45044;DHT22;30784;48.490;9.688;2023-04-06T12:55:55;20.10;20.70
45044;DHT22;30784;48.490;9.688;2023-04-06T12:58:21;20.10;20.70
45044;DHT22;30784;48.490;9.688;2023-04-06T13:00:48;20.20;20.80
45044;DHT22;30784;48.490;9.688;2023-04-06T13:03:14;20.20;20.70
45044;DHT22;30784;48.490;9.688;2023-04-06T13:05:47;20.20;20.60
45044;DHT22;30784;48.490;9.688;2023-04-06T13:08:13;20.20;20.60
45044;DHT22;30784;48.490;9.688;2023-04-06T13:10:46;20.10;20.60
45044;DHT22;30784;48.490;9.688;2023-04-06T13:13:16;20.00;20.30
45044;DHT22;30784;48.490;9.688;2023-04-06T13:15:41;19.90;20.20
45044;DHT22;30784;48.490;9.688;2023-04-06T13:18:08;19.80;20.20
45044;DHT22;30784;48.490;9.688;2023-04-06T13:20:34;19.80;20.40
45044;DHT22;30784;48.490;9.688;2023-04-06T13:22:59;19.70;20.30
45044;DHT22;30784;48.490;9.688;2023-04-06T13:25:25;19.70;20.50
45044;DHT22;30784;48.490;9.688;2023-04-06T13:27:51;19.60;20.20
45044;DHT22;30784;48.490;9.688;2023-04-06T13:30:16;19.50;20.00
45044;DHT22;30784;48.490;9.688;2023-04-06T13:32:42;19.40;20.10
45044;DHT22;30784;48.490;9.688;2023-04-06T13:35:08;19.30;20.10
45044;DHT22;30784;48.490;9.688;2023-04-06T13:37:34;19.40;20.30
45044;DHT22;30784;48.490;9.688;2023-04-06T13:40:01;19.30;20.30
45044;DHT22;30784;48.490;9.688;2023-04-06T13:42:28;19.20;20.20
45044;DHT22;30784;48.490;9.688;2023-04-06T13:44:53;19.10;20.20
45044;DHT22;30784;48.490;9.688;2023-04-06T13:47:19;19.00;20.20
45044;DHT22;30784;48.490;9.688;2023-04-06T13:49:46;18.90;20.00
45044;DHT22;30784;48.490;9.688;2023-04-06T13:52:12;18.80;20.10
45044;DHT22;30784;48.490;9.688;2023-04-06T13:54:37;18.80;20.10
45044;DHT22;30784;48.490;9.688;2023-04-06T13:57:03;18.60;20.00
45044;DHT22;30784;48.490;9.688;2023-04-06T13:59:36;18.50;20.30
45044;DHT22;30784;48.490;9.688;2023-04-06T14:02:03;18.40;20.20
45044;DHT22;30784;48.490;9.688;2023-04-06T14:04:29;18.30;20.40
45044;DHT22;30784;48.490;9.688;2023-04-06T14:06:55;18.20;20.60
45044;DHT22;30784;48.490;9.688;2023-04-06T14:09:21;18.10;20.90
45044;DHT22;30784;48.490;9.688;2023-04-06T14:11:47;18.10;21.00
45044;DHT22;30784;48.490;9.688;2023-04-06T14:14:12;18.00;21.20
45044;DHT22;30784;48.490;9.688;2023-04-06T14:16:38;18.00;21.20
45044;DHT22;30784;48.490;9.688;2023-04-06T14:19:03;18.00;21.20
45044;DHT22;30784;48.490;9.688;2023-04-06T14:21:29;18.00;21.20
45044;DHT22;30784;48.490;9.688;2023-04-06T14:23:55;18.00;21.20
45044;DHT22;30784;48.490;9.688;2023-04-06T14:26:20;18.10;21.30
45044;DHT22;30784;48.490;9.688;2023-04-06T14:28:46;18.10;21.20
45044;DHT22;30784;48.490;9.688;2023-04-06T14:31:13;18.10;21.20
45044;DHT22;30784;48.490;9.688;2023-04-06T14:33:40;18.10;21.30
45044;DHT22;30784;48.490;9.688;2023-04-06T14:36:07;18.00;21.20
45044;DHT22;30784;48.490;9.688;2023-04-06T14:38:33;18.10;21.30
45044;DHT22;30784;48.490;9.688;2023-04-06T14:40:58;18.10;21.20
45044;DHT22;30784;48.490;9.688;2023-04-06T14:43:24;18.10;21.30
45044;DHT22;30784;48.490;9.688;2023-04-06T14:45:50;18.00;21.40
45044;DHT22;30784;48.490;9.688;2023-04-06T14:48:16;18.00;21.30
45044;DHT22;30784;48.490;9.688;2023-04-06T14:50:55;18.00;21.40
45044;DHT22;30784;48.490;9.688;2023-04-06T14:53:22;18.10;21.40
45044;DHT22;30784;48.490;9.688;2023-04-06T14:55:47;18.10;21.60
45044;DHT22;30784;48.490;9.688;2023-04-06T14:58:15;18.10;21.50
45044;DHT22;30784;48.490;9.688;2023-04-06T15:00:41;18.10;21.50
45044;DHT22;30784;48.490;9.688;2023-04-06T15:03:06;18.20;21.40
45044;DHT22;30784;48.490;9.688;2023-04-06T15:05:34;18.20;21.30
45044;DHT22;30784;48.490;9.688;2023-04-06T15:08:00;18.20;21.30
45044;DHT22;30784;48.490;9.688;2023-04-06T15:10:25;18.20;21.20
45044;DHT22;30784;48.490;9.688;2023-04-06T15:12:51;18.20;21.10
45044;DHT22;30784;48.490;9.688;2023-04-06T15:15:16;18.20;21.30
45044;DHT22;30784;48.490;9.688;2023-04-06T15:17:42;18.20;21.20
45044;DHT22;30784;48.490;9.688;2023-04-06T15:20:07;18.30;21.20
45044;DHT22;30784;48.490;9.688;2023-04-06T15:22:33;18.30;21.10
45044;DHT22;30784;48.490;9.688;2023-04-06T15:24:59;18.30;21.20
45044;DHT22;30784;48.490;9.688;2023-04-06T15:27:24;18.30;21.10
45044;DHT22;30784;48.490;9.688;2023-04-06T15:29:50;18.30;21.10
45044;DHT22;30784;48.490;9.688;2023-04-06T15:32:15;18.30;21.00
45044;DHT22;30784;48.490;9.688;2023-04-06T15:34:41;18.30;21.10
45044;DHT22;30784;48.490;9.688;2023-04-06T15:37:06;18.20;21.20
45044;DHT22;30784;48.490;9.688;2023-04-06T15:39:33;18.20;21.20
45044;DHT22;30784;48.490;9.688;2023-04-06T15:41:59;18.20;21.30
45044;DHT22;30784;48.490;9.688;2023-04-06T15:44:25;18.20;21.30
45044;DHT22;30784;48.490;9.688;2023-04-06T15:46:51;18.20;21.10
45044;DHT22;30784;48.490;9.688;2023-04-06T15:49:18;18.10;21.10